sensor_id;sensor_type;location;lat;lon;timestamp;pressure;altitude;pressure_sealevel;temperature;humidity
48527;BME280;34317;51.660;5.824;2023-05-10T00:02:09;61331.59;;;-144.85;100.00
48527;BME280;34317;51.660;5.824;2023-05-10T00:04:36;61331.59;;;-144.85;100.00
48527;BME280;34317;51.660;5.824;2023-05-10T00:07:03;61331.59;;;-144.85;100.00
48527;BME280;34317;51.660;5.824;2023-05-10T00:09:30;61331.59;;;-144.85;100.00
48527;BME280;34317;51.660;5.824;2023-05-10T00:11:57;61331.59;;;-144.85;100.00
48527;BME280;34317;51.660;5.824;2023-05-10T00:14:25;61331.59;;;-144.85;100.00
48527;BME280;34317;51.660;5.824;2023-05-10T00:16:52;61331.59;;;-144.85;100.00
48527;BME280;34317;51.660;5.824;2023-05-10T00:19:23;61331.59;;;-144.85;100.00
48527;BME280;34317;51.660;5.824;2023-05-10T00:21:53;61331.59;;;-144.85;100.00
48527;BME280;34317;51.660;5.824;2023-05-10T00:24:20;61331.59;;;-144.85;100.00
48527;BME280;34317;51.660;5.824;2023-05-10T00:26:47;61331.59;;;-144.85;100.00
48527;BME280;34317;51.660;5.824;2023-05-10T00:29:14;61331.59;;;-144.85;100.00
48527;BME280;34317;51.660;5.824;2023-05-10T00:31:41;61331.59;;;-144.85;100.00
48527;BME280;34317;51.660;5.824;2023-05-10T00:34:09;61331.59;;;-144.85;100.00
48527;BME280;34317;51.660;5.824;2023-05-10T00:36:36;61331.59;;;-144.85;100.00
48527;BME280;34317;51.660;5.824;2023-05-10T00:39:03;61331.59;;;-144.85;100.00
48527;BME280;34317;51.660;5.824;2023-05-10T00:41:31;61331.59;;;-144.85;100.00
48527;BME280;34317;51.660;5.824;2023-05-10T00:44:02;61331.59;;;-144.85;100.00
48527;BME280;34317;51.660;5.824;2023-05-10T00:46:29;61331.59;;;-144.85;100.00
48527;BME280;34317;51.660;5.824;2023-05-10T00:48:58;61331.59;;;-144.85;100.00
48527;BME280;34317;51.660;5.824;2023-05-10T00:51:25;61331.59;;;-144.85;100.00
48527;BME280;34317;51.660;5.824;2023-05-10T00:53:53;61331.59;;;-144.85;100.00
48527;BME280;34317;51.660;5.824;2023-05-10T00:56:20;61331.59;;;-144.85;100.00
48527;BME280;34317;51.660;5.824;2023-05-10T00:58:50;61331.59;;;-144.85;100.00
48527;BME280;34317;51.660;5.824;2023-05-10T01:01:17;61331.59;;;-144.85;100.00
48527;BME280;34317;51.660;5.824;2023-05-10T01:03:45;61331.59;;;-144.85;100.00
48527;BME280;34317;51.660;5.824;2023-05-10T01:06:12;61331.59;;;-144.85;100.00
48527;BME280;34317;51.660;5.824;2023-05-10T01:08:40;61331.59;;;-144.85;100.00
48527;BME280;34317;51.660;5.824;2023-05-10T01:11:07;61331.59;;;-144.85;100.00
48527;BME280;34317;51.660;5.824;2023-05-10T01:13:37;61331.59;;;-144.85;100.00
48527;BME280;34317;51.660;5.824;2023-05-10T01:16:06;61331.59;;;-144.85;100.00
48527;BME280;34317;51.660;5.824;2023-05-10T01:18:37;61331.59;;;-144.85;100.00
48527;BME280;34317;51.660;5.824;2023-05-10T01:21:14;61331.59;;;-144.85;100.00
48527;BME280;34317;51.660;5.824;2023-05-10T01:36:04;61331.59;;;-144.85;100.00
48527;BME280;34317;51.660;5.824;2023-05-10T01:43:58;61331.59;;;-144.85;100.00
48527;BME280;34317;51.660;5.824;2023-05-10T01:46:40;61331.59;;;-144.85;100.00
48527;BME280;34317;51.660;5.824;2023-05-10T01:49:10;61331.59;;;-144.85;100.00
48527;BME280;34317;51.660;5.824;2023-05-10T01:51:42;61331.59;;;-144.85;100.00
48527;BME280;34317;51.660;5.824;2023-05-10T01:54:13;61331.59;;;-144.85;100.00
48527;BME280;34317;51.660;5.824;2023-05-10T01:56:43;61331.59;;;-144.85;100.00
48527;BME280;34317;51.660;5.824;2023-05-10T01:59:13;61331.59;;;-144.85;100.00
48527;BME280;34317;51.660;5.824;2023-05-10T02:01:43;61331.59;;;-144.85;100.00
48527;BME280;34317;51.660;5.824;2023-05-10T02:04:15;61331.59;;;-144.85;100.00
48527;BME280;34317;51.660;5.824;2023-05-10T02:06:45;61331.59;;;-144.85;100.00
48527;BME280;34317;51.660;5.824;2023-05-10T02:09:16;61331.59;;;-144.85;100.00
48527;BME280;34317;51.660;5.824;2023-05-10T02:11:45;61331.59;;;-144.85;100.00
48527;BME280;34317;51.660;5.824;2023-05-10T02:14:15;61331.59;;;-144.85;100.00
48527;BME280;34317;51.660;5.824;2023-05-10T02:16:44;61331.59;;;-144.85;100.00
48527;BME280;34317;51.660;5.824;2023-05-10T02:19:13;61331.59;;;-144.85;100.00
48527;BME280;34317;51.660;5.824;2023-05-10T02:21:41;61331.59;;;-144.85;100.00
48527;BME280;34317;51.660;5.824;2023-05-10T02:24:10;61331.59;;;-144.85;100.00
48527;BME280;34317;51.660;5.824;2023-05-10T02:26:38;61331.59;;;-144.85;100.00
48527;BME280;34317;51.660;5.824;2023-05-10T02:29:06;61331.59;;;-144.85;100.00
48527;BME280;34317;51.660;5.824;2023-05-10T02:31:34;61331.59;;;-144.85;100.00
48527;BME280;34317;51.660;5.824;2023-05-10T02:34:04;61331.59;;;-144.85;100.00
48527;BME280;34317;51.660;5.824;2023-05-10T02:36:32;61331.59;;;-144.85;100.00
48527;BME280;34317;51.660;5.824;2023-05-10T02:39:01;61331.59;;;-144.85;100.00
48527;BME280;34317;51.660;5.824;2023-05-10T02:41:30;61331.59;;;-144.85;100.00
48527;BME280;34317;51.660;5.824;2023-05-10T02:43:59;61331.59;;;-144.85;100.00
48527;BME280;34317;51.660;5.824;2023-05-10T02:46:28;61331.59;;;-144.85;100.00
48527;BME280;34317;51.660;5.824;2023-05-10T02:48:55;61331.59;;;-144.85;100.00
48527;BME280;34317;51.660;5.824;2023-05-10T02:51:25;61331.59;;;-144.85;100.00
48527;BME280;34317;51.660;5.824;2023-05-10T02:53:56;61331.59;;;-144.85;100.00
48527;BME280;34317;51.660;5.824;2023-05-10T02:56:25;61331.59;;;-144.85;100.00
48527;BME280;34317;51.660;5.824;2023-05-10T02:58:55;61331.59;;;-144.85;100.00
48527;BME280;34317;51.660;5.824;2023-05-10T03:01:23;61331.59;;;-144.85;100.00
48527;BME280;34317;51.660;5.824;2023-05-10T03:03:50;61331.59;;;-144.85;100.00
48527;BME280;34317;51.660;5.824;2023-05-10T03:06:17;61331.59;;;-144.85;100.00
48527;BME280;34317;51.660;5.824;2023-05-10T03:08:44;61331.59;;;-144.85;100.00
48527;BME280;34317;51.660;5.824;2023-05-10T03:16:45;61331.59;;;-144.85;100.00
48527;BME280;34317;51.660;5.824;2023-05-10T03:19:32;61331.59;;;-144.85;100.00
48527;BME280;34317;51.660;5.824;2023-05-10T03:22:08;61331.59;;;-144.85;100.00
48527;BME280;34317;51.660;5.824;2023-05-10T03:24:39;61331.59;;;-144.85;100.00
48527;BME280;34317;51.660;5.824;2023-05-10T03:27:09;61331.59;;;-144.85;100.00
48527;BME280;34317;51.660;5.824;2023-05-10T03:29:38;61331.59;;;-144.85;100.00
48527;BME280;34317;51.660;5.824;2023-05-10T03:32:06;61331.59;;;-144.85;100.00
48527;BME280;34317;51.660;5.824;2023-05-10T03:34:33;61331.59;;;-144.85;100.00
48527;BME280;34317;51.660;5.824;2023-05-10T03:37:00;61331.59;;;-144.85;100.00
48527;BME280;34317;51.660;5.824;2023-05-10T03:39:30;61331.59;;;-144.85;100.00
48527;BME280;34317;51.660;5.824;2023-05-10T03:41:59;61331.59;;;-144.85;100.00
48527;BME280;34317;51.660;5.824;2023-05-10T03:44:26;61331.59;;;-144.85;100.00
48527;BME280;34317;51.660;5.824;2023-05-10T03:46:53;61331.59;;;-144.85;100.00
48527;BME280;34317;51.660;5.824;2023-05-10T03:49:21;61331.59;;;-144.85;100.00
48527;BME280;34317;51.660;5.824;2023-05-10T03:51:48;61331.59;;;-144.85;100.00
48527;BME280;34317;51.660;5.824;2023-05-10T03:54:15;61331.59;;;-144.85;100.00
48527;BME280;34317;51.660;5.824;2023-05-10T03:56:42;61331.59;;;-144.85;100.00
48527;BME280;34317;51.660;5.824;2023-05-10T03:59:09;61331.59;;;-144.85;100.00
48527;BME280;34317;51.660;5.824;2023-05-10T04:01:37;61331.59;;;-144.85;100.00
48527;BME280;34317;51.660;5.824;2023-05-10T04:04:04;61331.59;;;-144.85;100.00
48527;BME280;34317;51.660;5.824;2023-05-10T04:06:31;61331.59;;;-144.85;100.00
48527;BME280;34317;51.660;5.824;2023-05-10T04:08:59;61331.59;;;-144.85;100.00
48527;BME280;34317;51.660;5.824;2023-05-10T04:11:27;61331.59;;;-144.85;100.00
48527;BME280;34317;51.660;5.824;2023-05-10T04:13:54;61331.59;;;-144.85;100.00
48527;BME280;34317;51.660;5.824;2023-05-10T04:16:22;61331.59;;;-144.85;100.00
48527;BME280;34317;51.660;5.824;2023-05-10T04:18:49;61331.59;;;-144.85;100.00
48527;BME280;34317;51.660;5.824;2023-05-10T04:21:16;61331.59;;;-144.85;100.00
48527;BME280;34317;51.660;5.824;2023-05-10T04:23:43;61331.59;;;-144.85;100.00
48527;BME280;34317;51.660;5.824;2023-05-10T04:26:10;61331.59;;;-144.85;100.00
48527;BME280;34317;51.660;5.824;2023-05-10T04:28:37;61331.59;;;-144.85;100.00
48527;BME280;34317;51.660;5.824;2023-05-10T04:31:06;61331.59;;;-144.85;100.00
48527;BME280;34317;51.660;5.824;2023-05-10T04:33:34;61331.59;;;-144.85;100.00
48527;BME280;34317;51.660;5.824;2023-05-10T04:36:02;61331.59;;;-144.85;100.00
48527;BME280;34317;51.660;5.824;2023-05-10T04:38:30;61331.59;;;-144.85;100.00
48527;BME280;34317;51.660;5.824;2023-05-10T04:41:07;61331.59;;;-144.85;100.00
48527;BME280;34317;51.660;5.824;2023-05-10T04:43:35;61331.59;;;-144.85;100.00
48527;BME280;34317;51.660;5.824;2023-05-10T04:46:04;61331.59;;;-144.85;100.00
48527;BME280;34317;51.660;5.824;2023-05-10T04:48:31;61331.59;;;-144.85;100.00
48527;BME280;34317;51.660;5.824;2023-05-10T04:50:59;61331.59;;;-144.85;100.00
48527;BME280;34317;51.660;5.824;2023-05-10T04:53:26;61331.59;;;-144.85;100.00
48527;BME280;34317;51.660;5.824;2023-05-10T04:55:53;61331.59;;;-144.85;100.00
48527;BME280;34317;51.660;5.824;2023-05-10T04:58:20;61331.59;;;-144.85;100.00
48527;BME280;34317;51.660;5.824;2023-05-10T05:00:48;61331.59;;;-144.85;100.00
48527;BME280;34317;51.660;5.824;2023-05-10T05:03:15;61331.59;;;-144.85;100.00
48527;BME280;34317;51.660;5.824;2023-05-10T05:05:43;61331.59;;;-144.85;100.00
48527;BME280;34317;51.660;5.824;2023-05-10T05:08:11;61331.59;;;-144.85;100.00
48527;BME280;34317;51.660;5.824;2023-05-10T05:10:38;61331.59;;;-144.85;100.00
48527;BME280;34317;51.660;5.824;2023-05-10T05:13:05;61331.59;;;-144.85;100.00
48527;BME280;34317;51.660;5.824;2023-05-10T05:15:32;61331.59;;;-144.85;100.00
48527;BME280;34317;51.660;5.824;2023-05-10T05:18:00;61331.59;;;-144.85;100.00
48527;BME280;34317;51.660;5.824;2023-05-10T05:20:27;61331.59;;;-144.85;100.00
48527;BME280;34317;51.660;5.824;2023-05-10T05:22:54;61331.59;;;-144.85;100.00
48527;BME280;34317;51.660;5.824;2023-05-10T05:25:24;61331.59;;;-144.85;100.00
48527;BME280;34317;51.660;5.824;2023-05-10T05:27:51;61331.59;;;-144.85;100.00
48527;BME280;34317;51.660;5.824;2023-05-10T05:30:19;61331.59;;;-144.85;100.00
48527;BME280;34317;51.660;5.824;2023-05-10T05:32:46;61331.59;;;-144.85;100.00
48527;BME280;34317;51.660;5.824;2023-05-10T05:35:14;61331.59;;;-144.85;100.00
48527;BME280;34317;51.660;5.824;2023-05-10T05:37:42;61331.59;;;-144.85;100.00
48527;BME280;34317;51.660;5.824;2023-05-10T05:40:13;61331.59;;;-144.85;100.00
48527;BME280;34317;51.660;5.824;2023-05-10T05:42:41;61331.59;;;-144.85;100.00
48527;BME280;34317;51.660;5.824;2023-05-10T05:45:08;61331.59;;;-144.85;100.00
48527;BME280;34317;51.660;5.824;2023-05-10T05:47:40;61331.59;;;-144.85;100.00
48527;BME280;34317;51.660;5.824;2023-05-10T05:50:07;61331.59;;;-144.85;100.00
48527;BME280;34317;51.660;5.824;2023-05-10T05:52:34;61331.59;;;-144.85;100.00
48527;BME280;34317;51.660;5.824;2023-05-10T05:55:03;61331.59;;;-144.85;100.00
48527;BME280;34317;51.660;5.824;2023-05-10T05:57:30;61331.59;;;-144.85;100.00
48527;BME280;34317;51.660;5.824;2023-05-10T05:59:57;61331.59;;;-144.85;100.00
48527;BME280;34317;51.660;5.824;2023-05-10T06:02:25;61331.59;;;-144.85;100.00
48527;BME280;34317;51.660;5.824;2023-05-10T06:04:52;61331.59;;;-144.85;100.00
48527;BME280;34317;51.660;5.824;2023-05-10T06:07:19;61331.59;;;-144.85;100.00
48527;BME280;34317;51.660;5.824;2023-05-10T06:09:47;61331.59;;;-144.85;100.00
48527;BME280;34317;51.660;5.824;2023-05-10T06:12:14;61331.59;;;-144.85;100.00
48527;BME280;34317;51.660;5.824;2023-05-10T06:14:41;61331.59;;;-144.85;100.00
48527;BME280;34317;51.660;5.824;2023-05-10T06:17:09;61331.59;;;-144.85;100.00
48527;BME280;34317;51.660;5.824;2023-05-10T06:19:37;61331.59;;;-144.85;100.00
48527;BME280;34317;51.660;5.824;2023-05-10T06:22:08;61331.59;;;-144.85;100.00
48527;BME280;34317;51.660;5.824;2023-05-10T06:24:36;61331.59;;;-144.85;100.00
48527;BME280;34317;51.660;5.824;2023-05-10T06:27:03;61331.59;;;-144.85;100.00
48527;BME280;34317;51.660;5.824;2023-05-10T06:29:31;61331.59;;;-144.85;100.00
48527;BME280;34317;51.660;5.824;2023-05-10T06:31:58;61331.59;;;-144.85;100.00
48527;BME280;34317;51.660;5.824;2023-05-10T06:34:25;61331.59;;;-144.85;100.00
48527;BME280;34317;51.660;5.824;2023-05-10T06:36:52;61331.59;;;-144.85;100.00
48527;BME280;34317;51.660;5.824;2023-05-10T06:39:19;61331.59;;;-144.85;100.00
48527;BME280;34317;51.660;5.824;2023-05-10T06:41:46;61331.59;;;-144.85;100.00
48527;BME280;34317;51.660;5.824;2023-05-10T06:44:13;61331.59;;;-144.85;100.00
48527;BME280;34317;51.660;5.824;2023-05-10T06:46:41;61331.59;;;-144.85;100.00
48527;BME280;34317;51.660;5.824;2023-05-10T06:49:08;61331.59;;;-144.85;100.00
48527;BME280;34317;51.660;5.824;2023-05-10T06:51:36;61331.59;;;-144.85;100.00
48527;BME280;34317;51.660;5.824;2023-05-10T06:54:07;61331.59;;;-144.85;100.00
48527;BME280;34317;51.660;5.824;2023-05-10T06:56:50;61331.59;;;-144.85;100.00
48527;BME280;34317;51.660;5.824;2023-05-10T06:59:23;61331.59;;;-144.85;100.00
48527;BME280;34317;51.660;5.824;2023-05-10T07:01:51;61331.59;;;-144.85;100.00
48527;BME280;34317;51.660;5.824;2023-05-10T07:04:18;61331.59;;;-144.85;100.00
48527;BME280;34317;51.660;5.824;2023-05-10T07:06:45;61331.59;;;-144.85;100.00
48527;BME280;34317;51.660;5.824;2023-05-10T07:09:13;61331.59;;;-144.85;100.00
48527;BME280;34317;51.660;5.824;2023-05-10T07:11:40;61331.59;;;-144.85;100.00
48527;BME280;34317;51.660;5.824;2023-05-10T07:14:07;61331.59;;;-144.85;100.00
48527;BME280;34317;51.660;5.824;2023-05-10T07:16:34;61331.59;;;-144.85;100.00
48527;BME280;34317;51.660;5.824;2023-05-10T07:19:01;61331.59;;;-144.85;100.00
48527;BME280;34317;51.660;5.824;2023-05-10T07:21:29;61331.59;;;-144.85;100.00
48527;BME280;34317;51.660;5.824;2023-05-10T07:23:56;61331.59;;;-144.85;100.00
48527;BME280;34317;51.660;5.824;2023-05-10T07:26:23;61331.59;;;-144.85;100.00
48527;BME280;34317;51.660;5.824;2023-05-10T07:28:50;61331.59;;;-144.85;100.00
48527;BME280;34317;51.660;5.824;2023-05-10T07:31:17;61331.59;;;-144.85;100.00
48527;BME280;34317;51.660;5.824;2023-05-10T07:33:45;61331.59;;;-144.85;100.00
48527;BME280;34317;51.660;5.824;2023-05-10T07:36:13;61331.59;;;-144.85;100.00
48527;BME280;34317;51.660;5.824;2023-05-10T07:38:40;61331.59;;;-144.85;100.00
48527;BME280;34317;51.660;5.824;2023-05-10T07:41:07;61331.59;;;-144.85;100.00
48527;BME280;34317;51.660;5.824;2023-05-10T07:43:34;61331.59;;;-144.85;100.00
48527;BME280;34317;51.660;5.824;2023-05-10T07:46:01;61331.59;;;-144.85;100.00
48527;BME280;34317;51.660;5.824;2023-05-10T07:48:28;61331.59;;;-144.85;100.00
48527;BME280;34317;51.660;5.824;2023-05-10T07:50:56;61331.59;;;-144.85;100.00
48527;BME280;34317;51.660;5.824;2023-05-10T07:53:23;61331.59;;;-144.85;100.00
48527;BME280;34317;51.660;5.824;2023-05-10T07:55:51;61331.59;;;-144.85;100.00
48527;BME280;34317;51.660;5.824;2023-05-10T07:58:18;61331.59;;;-144.85;100.00
48527;BME280;34317;51.660;5.824;2023-05-10T08:00:45;61331.59;;;-144.85;100.00
48527;BME280;34317;51.660;5.824;2023-05-10T08:03:12;61331.59;;;-144.85;100.00
48527;BME280;34317;51.660;5.824;2023-05-10T08:05:56;61331.59;;;-144.85;100.00
48527;BME280;34317;51.660;5.824;2023-05-10T08:08:24;61331.59;;;-144.85;100.00
48527;BME280;34317;51.660;5.824;2023-05-10T08:10:56;61331.59;;;-144.85;100.00
48527;BME280;34317;51.660;5.824;2023-05-10T08:13:23;61331.59;;;-144.85;100.00
48527;BME280;34317;51.660;5.824;2023-05-10T08:15:50;61331.59;;;-144.85;100.00
48527;BME280;34317;51.660;5.824;2023-05-10T08:18:20;61331.59;;;-144.85;100.00
48527;BME280;34317;51.660;5.824;2023-05-10T08:21:02;61331.59;;;-144.85;100.00
48527;BME280;34317;51.660;5.824;2023-05-10T08:23:29;61331.59;;;-144.85;100.00
48527;BME280;34317;51.660;5.824;2023-05-10T08:25:57;61331.59;;;-144.85;100.00
48527;BME280;34317;51.660;5.824;2023-05-10T08:28:24;61331.59;;;-144.85;100.00
48527;BME280;34317;51.660;5.824;2023-05-10T08:30:51;61331.59;;;-144.85;100.00
48527;BME280;34317;51.660;5.824;2023-05-10T08:33:19;61331.59;;;-144.85;100.00
48527;BME280;34317;51.660;5.824;2023-05-10T08:35:46;61331.59;;;-144.85;100.00
48527;BME280;34317;51.660;5.824;2023-05-10T08:38:13;61331.59;;;-144.85;100.00
48527;BME280;34317;51.660;5.824;2023-05-10T08:40:42;61331.59;;;-144.85;100.00
48527;BME280;34317;51.660;5.824;2023-05-10T08:43:12;61331.59;;;-144.85;100.00
48527;BME280;34317;51.660;5.824;2023-05-10T08:45:43;61331.59;;;-144.85;100.00
48527;BME280;34317;51.660;5.824;2023-05-10T08:48:15;61331.59;;;-144.85;100.00
48527;BME280;34317;51.660;5.824;2023-05-10T08:50:44;61331.59;;;-144.85;100.00
48527;BME280;34317;51.660;5.824;2023-05-10T08:53:14;61331.59;;;-144.85;100.00
48527;BME280;34317;51.660;5.824;2023-05-10T08:55:43;61331.59;;;-144.85;100.00
48527;BME280;34317;51.660;5.824;2023-05-10T08:58:10;61331.59;;;-144.85;100.00
48527;BME280;34317;51.660;5.824;2023-05-10T09:00:37;61331.59;;;-144.85;100.00
48527;BME280;34317;51.660;5.824;2023-05-10T09:03:05;61331.59;;;-144.85;100.00
48527;BME280;34317;51.660;5.824;2023-05-10T09:05:33;61331.59;;;-144.85;100.00
48527;BME280;34317;51.660;5.824;2023-05-10T09:08:00;61331.59;;;-144.85;100.00
48527;BME280;34317;51.660;5.824;2023-05-10T09:10:28;61331.59;;;-144.85;100.00
48527;BME280;34317;51.660;5.824;2023-05-10T09:12:57;61331.59;;;-144.85;100.00
48527;BME280;34317;51.660;5.824;2023-05-10T09:15:25;61331.59;;;-144.85;100.00
48527;BME280;34317;51.660;5.824;2023-05-10T09:17:54;61331.59;;;-144.85;100.00
48527;BME280;34317;51.660;5.824;2023-05-10T09:20:21;61331.59;;;-144.85;100.00
48527;BME280;34317;51.660;5.824;2023-05-10T09:22:49;61331.59;;;-144.85;100.00
48527;BME280;34317;51.660;5.824;2023-05-10T09:25:16;61331.59;;;-144.85;100.00
48527;BME280;34317;51.660;5.824;2023-05-10T09:27:46;61331.59;;;-144.85;100.00
48527;BME280;34317;51.660;5.824;2023-05-10T09:32:47;61331.59;;;-144.85;100.00
48527;BME280;34317;51.660;5.824;2023-05-10T09:35:16;61331.59;;;-144.85;100.00
48527;BME280;34317;51.660;5.824;2023-05-10T09:37:46;61331.59;;;-144.85;100.00
48527;BME280;34317;51.660;5.824;2023-05-10T09:40:19;61331.59;;;-144.85;100.00
48527;BME280;34317;51.660;5.824;2023-05-10T09:42:58;61331.59;;;-144.85;100.00
48527;BME280;34317;51.660;5.824;2023-05-10T09:45:30;61331.59;;;-144.85;100.00
48527;BME280;34317;51.660;5.824;2023-05-10T09:47:59;61331.59;;;-144.85;100.00
48527;BME280;34317;51.660;5.824;2023-05-10T09:50:26;61331.59;;;-144.85;100.00
48527;BME280;34317;51.660;5.824;2023-05-10T09:52:58;61331.59;;;-144.85;100.00
48527;BME280;34317;51.660;5.824;2023-05-10T09:55:38;61331.59;;;-144.85;100.00
48527;BME280;34317;51.660;5.824;2023-05-10T09:58:07;61331.59;;;-144.85;100.00
48527;BME280;34317;51.660;5.824;2023-05-10T10:00:39;61331.59;;;-144.85;100.00
48527;BME280;34317;51.660;5.824;2023-05-10T10:03:15;61331.59;;;-144.85;100.00
48527;BME280;34317;51.660;5.824;2023-05-10T10:05:44;61331.59;;;-144.85;100.00
48527;BME280;34317;51.660;5.824;2023-05-10T10:08:12;61331.59;;;-144.85;100.00
48527;BME280;34317;51.660;5.824;2023-05-10T10:10:41;61331.59;;;-144.85;100.00
48527;BME280;34317;51.660;5.824;2023-05-10T10:13:08;61331.59;;;-144.85;100.00
48527;BME280;34317;51.660;5.824;2023-05-10T10:15:36;61331.59;;;-144.85;100.00
48527;BME280;34317;51.660;5.824;2023-05-10T10:18:05;61331.59;;;-144.85;100.00
48527;BME280;34317;51.660;5.824;2023-05-10T10:20:32;61331.59;;;-144.85;100.00
48527;BME280;34317;51.660;5.824;2023-05-10T10:22:59;61331.59;;;-144.85;100.00
48527;BME280;34317;51.660;5.824;2023-05-10T10:25:26;61331.59;;;-144.85;100.00
48527;BME280;34317;51.660;5.824;2023-05-10T10:33:13;61331.59;;;-144.85;100.00
48527;BME280;34317;51.660;5.824;2023-05-10T10:35:57;61331.59;;;-144.85;100.00
48527;BME280;34317;51.660;5.824;2023-05-10T10:38:25;61331.59;;;-144.85;100.00
48527;BME280;34317;51.660;5.824;2023-05-10T10:41:26;61331.59;;;-144.85;100.00
48527;BME280;34317;51.660;5.824;2023-05-10T10:52:31;61331.59;;;-144.85;100.00
48527;BME280;34317;51.660;5.824;2023-05-10T10:55:20;61331.59;;;-144.85;100.00
48527;BME280;34317;51.660;5.824;2023-05-10T10:57:53;61331.59;;;-144.85;100.00
48527;BME280;34317;51.660;5.824;2023-05-10T11:03:03;61331.59;;;-144.85;100.00
48527;BME280;34317;51.660;5.824;2023-05-10T11:05:34;61331.59;;;-144.85;100.00
48527;BME280;34317;51.660;5.824;2023-05-10T11:08:30;61331.59;;;-144.85;100.00
48527;BME280;34317;51.660;5.824;2023-05-10T11:13:39;61331.59;;;-144.85;100.00
48527;BME280;34317;51.660;5.824;2023-05-10T11:16:42;61331.59;;;-144.85;100.00
48527;BME280;34317;51.660;5.824;2023-05-10T11:19:11;61331.59;;;-144.85;100.00
48527;BME280;34317;51.660;5.824;2023-05-10T11:24:31;61331.59;;;-144.85;100.00
48527;BME280;34317;51.660;5.824;2023-05-10T11:27:00;61331.59;;;-144.85;100.00
48527;BME280;34317;51.660;5.824;2023-05-10T11:29:27;61331.59;;;-144.85;100.00
48527;BME280;34317;51.660;5.824;2023-05-10T11:31:57;61331.59;;;-144.85;100.00
48527;BME280;34317;51.660;5.824;2023-05-10T11:34:28;61331.59;;;-144.85;100.00
48527;BME280;34317;51.660;5.824;2023-05-10T11:36:57;61331.59;;;-144.85;100.00
48527;BME280;34317;51.660;5.824;2023-05-10T11:54:22;101102.59;;;19.52;58.79
48527;BME280;34317;51.660;5.824;2023-05-10T11:56:49;101111.41;;;19.65;58.71
48527;BME280;34317;51.660;5.824;2023-05-10T11:59:17;101097.28;;;19.75;58.61
48527;BME280;34317;51.660;5.824;2023-05-10T12:01:44;101096.78;;;19.81;58.33
48527;BME280;34317;51.660;5.824;2023-05-10T12:04:11;101100.19;;;19.83;58.36
48527;BME280;34317;51.660;5.824;2023-05-10T12:06:40;101094.69;;;19.84;58.28
48527;BME280;34317;51.660;5.824;2023-05-10T12:09:07;101096.28;;;19.87;58.35
48527;BME280;34317;51.660;5.824;2023-05-10T12:11:39;101098.00;;;19.88;58.19
48527;BME280;34317;51.660;5.824;2023-05-10T12:14:10;101102.88;;;19.94;58.78
48527;BME280;34317;51.660;5.824;2023-05-10T12:17:11;101099.72;;;20.00;58.74
48527;BME280;34317;51.660;5.824;2023-05-10T12:19:38;101103.59;;;20.08;58.66
48527;BME280;34317;51.660;5.824;2023-05-10T12:22:06;101101.38;;;20.13;58.76
48527;BME280;34317;51.660;5.824;2023-05-10T12:24:34;101110.91;;;20.17;58.50
48527;BME280;34317;51.660;5.824;2023-05-10T12:27:05;101105.19;;;20.21;58.66
48527;BME280;34317;51.660;5.824;2023-05-10T12:29:35;101103.81;;;20.27;58.59
48527;BME280;34317;51.660;5.824;2023-05-10T12:32:02;101101.84;;;20.29;58.37
48527;BME280;34317;51.660;5.824;2023-05-10T12:34:31;101110.91;;;20.28;58.37
48527;BME280;34317;51.660;5.824;2023-05-10T12:36:59;101114.81;;;20.24;58.33
48527;BME280;34317;51.660;5.824;2023-05-10T12:39:41;101118.75;;;20.20;58.39
48527;BME280;34317;51.660;5.824;2023-05-10T12:42:09;101113.59;;;20.17;58.17
48527;BME280;34317;51.660;5.824;2023-05-10T12:44:37;101128.03;;;20.16;58.19
48527;BME280;34317;51.660;5.824;2023-05-10T12:47:04;101134.38;;;20.15;58.35
48527;BME280;34317;51.660;5.824;2023-05-10T12:49:32;101128.03;;;20.16;58.45
48527;BME280;34317;51.660;5.824;2023-05-10T12:52:00;101136.84;;;20.18;58.58
48527;BME280;34317;51.660;5.824;2023-05-10T12:54:28;101134.88;;;20.20;58.52
48527;BME280;34317;51.660;5.824;2023-05-10T12:56:55;101138.31;;;20.22;58.23
48527;BME280;34317;51.660;5.824;2023-05-10T12:59:22;101136.56;;;20.21;58.27
48527;BME280;34317;51.660;5.824;2023-05-10T13:01:49;101141.00;;;20.22;58.49
48527;BME280;34317;51.660;5.824;2023-05-10T13:04:17;101130.72;;;20.27;58.51
48527;BME280;34317;51.660;5.824;2023-05-10T13:06:44;101146.59;;;20.30;58.48
48527;BME280;34317;51.660;5.824;2023-05-10T13:09:11;101142.69;;;20.34;58.39
48527;BME280;34317;51.660;5.824;2023-05-10T13:11:38;101140.72;;;20.36;58.34
48527;BME280;34317;51.660;5.824;2023-05-10T13:14:05;101141.34;;;20.40;58.29
48527;BME280;34317;51.660;5.824;2023-05-10T13:16:33;101141.19;;;20.41;58.01
48527;BME280;34317;51.660;5.824;2023-05-10T13:19:00;101144.88;;;20.40;57.54
48527;BME280;34317;51.660;5.824;2023-05-10T13:21:28;101142.41;;;20.37;57.26
48527;BME280;34317;51.660;5.824;2023-05-10T13:23:55;101146.13;;;20.36;57.46
48527;BME280;34317;51.660;5.824;2023-05-10T13:26:22;101146.34;;;20.33;57.53
48527;BME280;34317;51.660;5.824;2023-05-10T13:28:50;101153.69;;;20.31;57.45
48527;BME280;34317;51.660;5.824;2023-05-10T13:31:18;101148.56;;;20.28;57.36
48527;BME280;34317;51.660;5.824;2023-05-10T13:33:46;101150.50;;;20.26;57.41
48527;BME280;34317;51.660;5.824;2023-05-10T13:36:13;101145.41;;;20.23;57.34
48527;BME280;34317;51.660;5.824;2023-05-10T13:38:40;101156.41;;;20.20;57.25
48527;BME280;34317;51.660;5.824;2023-05-10T13:41:07;101154.66;;;20.19;57.44
48527;BME280;34317;51.660;5.824;2023-05-10T13:43:34;101154.66;;;20.19;57.57
48527;BME280;34317;51.660;5.824;2023-05-10T13:46:02;101150.16;;;20.19;57.87